Time;durP1;ratioP1;P1;durP2;ratioP2;P2;SDS_P1;SDS_P2;PMS_P1;PMS_P2;Temp;Humidity;BMP_temperature;BMP_pressure;BME280_temperature;BME280_humidity;BME280_pressure;Samples;Min_cycle;Max_cycle;Signal;HPM_P1;HPM_P2
2022/06/28 00:00:20;;;;;;;21.13;14.27;;;15.10;99.40;;;;;;5051929;28;20021;-72
2022/06/28 00:02:46;;;;;;;22.95;13.70;;;15.10;99.40;;;;;;5054184;28;20480;-72
2022/06/28 00:05:12;;;;;;;18.20;13.88;;;15.00;99.30;;;;;;5053188;28;20033;-72
2022/06/28 00:07:37;;;;;;;23.55;14.07;;;15.00;99.30;;;;;;5051943;28;20028;-72
2022/06/28 00:10:04;;;;;;;19.80;13.35;;;15.10;99.40;;;;;;5052404;28;20448;-72
2022/06/28 00:12:29;;;;;;;28.27;13.98;;;15.10;99.40;;;;;;5047772;28;20040;-72
2022/06/28 00:17:40;;;;;;;25.25;14.10;;;15.00;99.50;;;;;;5052836;28;20044;-72
2022/06/28 00:20:06;;;;;;;22.10;14.02;;;15.10;99.50;;;;;;5047212;28;20042;-72
2022/06/28 00:22:32;;;;;;;21.13;14.57;;;15.10;99.50;;;;;;5053533;28;20044;-72
2022/06/28 00:24:57;;;;;;;23.95;14.32;;;15.10;99.50;;;;;;5057075;28;20036;-72
2022/06/28 00:27:23;;;;;;;26.17;14.32;;;15.10;99.40;;;;;;5053213;28;20383;-72
2022/06/28 00:29:48;;;;;;;22.08;13.85;;;15.10;99.40;;;;;;5046774;28;20086;-72
2022/06/28 00:32:14;;;;;;;20.55;14.23;;;15.10;99.50;;;;;;5054020;28;20052;-72
2022/06/28 00:34:39;;;;;;;18.92;14.02;;;15.20;99.50;;;;;;5047073;28;20095;-72
2022/06/28 00:37:05;;;;;;;24.00;13.80;;;15.20;99.40;;;;;;5052958;28;20083;-72
2022/06/28 00:39:30;;;;;;;25.65;14.45;;;15.10;99.40;;;;;;5052438;28;20040;-72
2022/06/28 00:41:56;;;;;;;20.15;13.32;;;15.10;99.30;;;;;;5052960;28;20043;-72
2022/06/28 00:44:23;;;;;;;19.80;13.85;;;15.00;99.30;;;;;;5052686;28;20041;-72
2022/06/28 00:46:48;;;;;;;20.15;13.95;;;15.10;99.40;;;;;;5047980;28;20124;-72
2022/06/28 00:49:14;;;;;;;17.75;13.63;;;15.10;99.40;;;;;;5048389;28;20128;-72
2022/06/28 00:51:40;;;;;;;23.30;13.90;;;15.10;99.40;;;;;;5054830;28;20033;-72
2022/06/28 00:54:06;;;;;;;19.83;14.20;;;15.10;99.40;;;;;;5047846;28;20064;-72
2022/06/28 00:56:31;;;;;;;23.88;14.43;;;15.10;99.30;;;;;;5049755;28;20024;-72
2022/06/28 00:58:57;;;;;;;21.98;13.23;;;15.10;99.30;;;;;;5052108;28;20028;-72
2022/06/28 01:01:24;;;;;;;17.40;13.77;;;15.00;99.30;;;;;;5052929;28;20484;-72
2022/06/28 01:03:50;;;;;;;20.70;13.40;;;15.10;99.30;;;;;;5048010;28;20380;-72
2022/06/28 01:06:16;;;;;;;21.45;14.68;;;15.00;99.30;;;;;;5042962;28;20429;-72
2022/06/28 01:08:44;;;;;;;23.02;13.85;;;15.00;99.30;;;;;;5049925;28;20033;-72
2022/06/28 01:11:21;;;;;;;18.88;13.10;;;15.10;99.40;;;;;;5047601;28;20074;-72
2022/06/28 01:14:07;;;;;;;21.17;14.38;;;15.10;99.40;;;;;;5044827;28;20028;-72
2022/06/28 01:16:34;;;;;;;21.73;14.27;;;15.00;99.30;;;;;;5047829;28;20435;-72
2022/06/28 01:18:59;;;;;;;20.02;14.32;;;15.10;99.40;;;;;;5046320;28;20087;-72
2022/06/28 01:21:27;;;;;;;19.67;14.57;;;15.10;99.40;;;;;;5047877;28;20444;-72
2022/06/28 01:23:54;;;;;;;21.83;14.30;;;15.10;99.40;;;;;;5051066;28;20029;-72
2022/06/28 01:26:20;;;;;;;24.88;15.05;;;15.10;99.30;;;;;;5044049;28;20098;-72
2022/06/28 01:28:46;;;;;;;21.80;13.38;;;15.10;99.40;;;;;;5047860;28;20463;-72
2022/06/28 01:31:12;;;;;;;25.55;14.05;;;15.00;99.30;;;;;;5050319;28;20037;-72
2022/06/28 01:33:39;;;;;;;22.15;13.68;;;15.00;99.40;;;;;;5051038;28;20037;-72
2022/06/28 01:36:06;;;;;;;18.35;14.20;;;15.00;99.40;;;;;;5047136;28;20060;-72
2022/06/28 01:38:32;;;;;;;27.17;15.35;;;15.10;99.40;;;;;;5049610;28;20500;-72
2022/06/28 01:40:58;;;;;;;24.23;14.50;;;15.10;99.40;;;;;;5046551;28;20131;-72
2022/06/28 01:43:25;;;;;;;27.77;14.15;;;15.10;99.50;;;;;;5041542;28;20439;-72
2022/06/28 01:45:52;;;;;;;27.60;15.15;;;15.10;99.40;;;;;;5041595;28;20091;-72
2022/06/28 01:48:18;;;;;;;19.20;15.10;;;15.00;99.40;;;;;;5044587;28;20676;-72
2022/06/28 01:50:45;;;;;;;26.50;15.63;;;15.00;99.40;;;;;;5049041;28;20044;-72
2022/06/28 01:53:10;;;;;;;25.30;16.20;;;15.00;99.40;;;;;;5047748;28;20118;-72
2022/06/28 01:55:36;;;;;;;22.25;15.77;;;15.00;99.50;;;;;;5044758;28;20479;-72
2022/06/28 01:58:02;;;;;;;27.08;16.85;;;15.00;99.50;;;;;;5048022;28;20029;-72
2022/06/28 02:00:29;;;;;;;22.98;15.57;;;15.00;99.50;;;;;;5047653;28;20099;-72
2022/06/28 02:02:54;;;;;;;21.85;16.35;;;15.00;99.50;;;;;;5046310;28;20290;-72
2022/06/28 02:05:20;;;;;;;30.73;15.95;;;15.00;99.50;;;;;;5048796;28;20021;-72
2022/06/28 02:07:47;;;;;;;27.17;16.55;;;14.90;99.50;;;;;;5048831;28;20152;-72
2022/06/28 02:10:13;;;;;;;24.02;15.13;;;14.90;99.50;;;;;;5041696;28;20083;-72
2022/06/28 02:12:38;;;;;;;23.95;14.95;;;14.80;99.50;;;;;;5050465;28;20028;-72
2022/06/28 02:15:04;;;;;;;29.50;17.38;;;14.80;99.50;;;;;;5043895;28;20460;-72
2022/06/28 02:17:30;;;;;;;28.50;17.98;;;14.70;99.50;;;;;;5046835;28;20448;-72
2022/06/28 02:19:55;;;;;;;28.52;18.17;;;14.70;99.60;;;;;;5046902;28;20059;-72
2022/06/28 02:22:21;;;;;;;27.38;18.42;;;14.70;99.70;;;;;;5044654;28;20033;-72
2022/06/28 02:24:46;;;;;;;28.10;18.90;;;14.80;99.70;;;;;;5053172;28;20064;-72
2022/06/28 02:27:12;;;;;;;28.95;18.42;;;14.90;99.70;;;;;;5045675;28;20045;-72
2022/06/28 02:29:37;;;;;;;29.42;18.38;;;14.90;99.60;;;;;;5048205;28;20041;-72
2022/06/28 02:32:03;;;;;;;30.05;18.75;;;14.80;99.40;;;;;;5042523;28;20047;-72
2022/06/28 02:42:41;;;;;;;36.65;20.10;;;14.70;99.70;;;;;;5046708;28;20120;-72
2022/06/28 02:45:07;;;;;;;38.00;20.65;;;14.80;99.80;;;;;;5039033;28;20112;-72
2022/06/28 02:47:33;;;;;;;32.53;19.65;;;14.90;99.80;;;;;;5046138;28;20086;-72
2022/06/28 02:49:58;;;;;;;35.35;20.52;;;14.90;99.70;;;;;;5042765;28;20048;-72
2022/06/28 02:52:24;;;;;;;40.80;21.60;;;14.90;99.70;;;;;;5047814;28;20086;-72
2022/06/28 02:54:49;;;;;;;37.80;19.30;;;14.90;99.70;;;;;;5046170;28;20131;-72
2022/06/28 02:57:14;;;;;;;31.27;19.88;;;14.90;99.70;;;;;;5043760;28;20059;-72
2022/06/28 02:59:40;;;;;;;34.95;18.88;;;14.90;99.60;;;;;;5045299;28;20029;-72
2022/06/28 03:02:05;;;;;;;34.25;18.08;;;14.80;99.60;;;;;;5046909;28;20111;-72
2022/06/28 03:04:31;;;;;;;30.80;18.30;;;14.70;99.50;;;;;;5035010;28;20033;-72
2022/06/28 03:06:57;;;;;;;35.03;17.65;;;14.60;99.60;;;;;;5042904;28;20067;-72
2022/06/28 03:09:22;;;;;;;37.13;18.50;;;14.60;99.60;;;;;;5043878;28;20035;-72
2022/06/28 03:11:48;;;;;;;27.45;19.15;;;14.70;99.70;;;;;;5041148;28;20040;-72
2022/06/28 03:14:13;;;;;;;33.15;18.15;;;14.70;99.70;;;;;;5048029;28;20542;-72
2022/06/28 03:16:39;;;;;;;28.83;17.27;;;14.70;99.60;;;;;;5045697;28;20500;-71
2022/06/28 03:19:04;;;;;;;32.83;18.63;;;14.70;99.70;;;;;;5046085;28;20102;-72
2022/06/28 03:21:30;;;;;;;30.60;18.52;;;14.70;99.70;;;;;;5048613;28;20085;-72
2022/06/28 03:23:55;;;;;;;30.40;18.08;;;14.70;99.70;;;;;;5045350;28;20409;-72
2022/06/28 03:26:21;;;;;;;33.95;17.98;;;14.70;99.70;;;;;;5043451;28;20036;-72
2022/06/28 03:28:46;;;;;;;30.42;18.73;;;14.70;99.70;;;;;;5045307;28;20586;-72
2022/06/28 03:31:11;;;;;;;34.60;19.60;;;14.70;99.70;;;;;;5041023;28;20026;-72
2022/06/28 03:33:38;;;;;;;35.10;19.33;;;14.70;99.60;;;;;;5046809;28;20102;-72
2022/06/28 03:36:03;;;;;;;34.42;20.45;;;14.70;99.70;;;;;;5047079;28;20428;-72
2022/06/28 03:38:29;;;;;;;31.77;20.38;;;14.70;99.60;;;;;;5044113;28;20079;-72
2022/06/28 03:40:55;;;;;;;33.70;20.30;;;14.60;99.60;;;;;;5046006;28;20040;-72
2022/06/28 03:43:20;;;;;;;32.42;20.15;;;14.60;99.60;;;;;;5045025;28;20409;-72
2022/06/28 03:45:46;;;;;;;34.10;20.80;;;14.60;99.50;;;;;;5045508;28;20155;-72
2022/06/28 03:48:11;;;;;;;34.92;21.00;;;14.50;99.50;;;;;;5046818;28;20771;-72
2022/06/28 03:50:37;;;;;;;31.17;21.52;;;14.50;99.60;;;;;;5043414;28;20124;-72
2022/06/28 03:53:03;;;;;;;32.30;21.35;;;14.50;99.60;;;;;;5048383;28;20148;-72
2022/06/28 03:55:28;;;;;;;30.85;21.00;;;14.50;99.50;;;;;;5041398;28;20107;-72
2022/06/28 03:57:54;;;;;;;32.45;20.90;;;14.50;99.50;;;;;;5047277;28;20100;-72
2022/06/28 04:00:19;;;;;;;38.03;22.15;;;14.50;99.60;;;;;;5041877;28;20087;-72
2022/06/28 04:02:45;;;;;;;36.60;22.33;;;14.60;99.50;;;;;;5039320;28;20030;-72
2022/06/28 04:05:10;;;;;;;32.47;20.83;;;14.70;99.60;;;;;;5047454;28;20116;-72
2022/06/28 04:07:36;;;;;;;31.90;21.52;;;14.80;99.40;;;;;;5042964;28;20053;-72
2022/06/28 04:10:01;;;;;;;33.92;21.52;;;14.80;99.40;;;;;;5036464;28;21900;-72
2022/06/28 04:12:27;;;;;;;29.35;21.00;;;14.80;99.20;;;;;;5044923;28;20166;-72
2022/06/28 04:14:52;;;;;;;30.85;19.80;;;15.00;99.30;;;;;;5045166;28;20424;-72
2022/06/28 04:17:18;;;;;;;25.52;18.70;;;15.00;99.20;;;;;;5046417;28;20036;-72
2022/06/28 04:19:43;;;;;;;29.45;19.80;;;15.00;99.20;;;;;;5035730;28;20469;-72
2022/06/28 04:22:09;;;;;;;27.02;17.80;;;15.10;99.10;;;;;;5043274;28;20033;-72
2022/06/28 04:24:34;;;;;;;24.88;18.23;;;15.00;98.90;;;;;;5042633;28;20044;-72
2022/06/28 04:27:00;;;;;;;20.85;17.05;;;15.00;98.70;;;;;;5041724;28;20419;-71
2022/06/28 04:29:25;;;;;;;21.20;17.10;;;15.00;98.80;;;;;;5039897;28;20136;-70
2022/06/28 04:31:51;;;;;;;22.90;17.60;;;15.10;98.70;;;;;;5042065;28;20052;-70
2022/06/28 04:34:16;;;;;;;22.88;16.42;;;15.00;98.40;;;;;;5041710;28;20494;-70
2022/06/28 04:36:42;;;;;;;20.90;16.48;;;15.10;98.40;;;;;;5042230;28;20119;-70
2022/06/28 04:39:07;;;;;;;23.75;16.38;;;15.00;98.30;;;;;;5049921;28;20071;-69
2022/06/28 04:41:33;;;;;;;20.67;15.90;;;15.10;98.30;;;;;;5043473;28;20293;-70
2022/06/28 04:43:58;;;;;;;21.77;16.48;;;15.20;98.10;;;;;;5048454;28;20112;-70
2022/06/28 04:46:24;;;;;;;21.17;15.43;;;15.20;97.80;;;;;;5050234;28;20114;-69
2022/06/28 04:48:49;;;;;;;22.77;15.57;;;15.10;97.70;;;;;;5046524;28;20033;-70
2022/06/28 04:51:15;;;;;;;20.05;16.10;;;15.20;97.80;;;;;;5046565;28;20590;-70
2022/06/28 04:53:42;;;;;;;21.30;15.98;;;15.10;97.50;;;;;;5048894;28;20464;-70
2022/06/28 04:56:09;;;;;;;20.75;15.98;;;15.10;97.60;;;;;;5045633;28;20017;-70
2022/06/28 04:58:35;;;;;;;26.05;15.57;;;15.10;97.70;;;;;;5043487;28;20484;-70
2022/06/28 05:01:01;;;;;;;24.02;16.42;;;14.90;97.60;;;;;;5042356;28;20063;-70
2022/06/28 05:03:27;;;;;;;24.60;16.60;;;14.80;97.50;;;;;;5048029;28;20029;-70
2022/06/28 05:05:53;;;;;;;24.63;16.20;;;14.80;97.70;;;;;;5048458;28;20437;-70
2022/06/28 05:08:18;;;;;;;22.75;17.48;;;14.90;97.80;;;;;;5046223;28;20021;-70
2022/06/28 05:10:44;;;;;;;25.65;17.23;;;14.80;97.70;;;;;;5050882;28;20029;-70
2022/06/28 05:13:09;;;;;;;26.08;18.42;;;15.00;97.90;;;;;;5046255;28;20075;-70
2022/06/28 05:15:35;;;;;;;25.42;17.58;;;15.00;97.70;;;;;;5045627;28;20028;-70
2022/06/28 05:18:00;;;;;;;23.25;18.02;;;15.00;97.70;;;;;;5050398;28;20078;-70
2022/06/28 05:20:26;;;;;;;26.38;18.20;;;15.10;97.80;;;;;;5048248;28;20468;-70
2022/06/28 05:22:51;;;;;;;24.15;17.52;;;15.10;97.60;;;;;;5052324;28;20029;-70
2022/06/28 05:25:17;;;;;;;23.33;18.02;;;15.20;97.60;;;;;;5050788;28;20453;-70
2022/06/28 05:27:43;;;;;;;23.27;18.80;;;15.20;97.40;;;;;;5050146;28;20464;-70
2022/06/28 05:30:09;;;;;;;23.52;17.88;;;15.30;97.30;;;;;;5049958;28;20035;-70
2022/06/28 05:32:35;;;;;;;20.85;17.23;;;15.40;96.80;;;;;;5050734;28;20090;-70
2022/06/28 05:35:00;;;;;;;20.08;16.63;;;15.30;96.80;;;;;;5050679;28;20571;-70
2022/06/28 05:37:25;;;;;;;21.30;17.00;;;15.40;96.80;;;;;;5051003;28;20100;-70
2022/06/28 05:39:51;;;;;;;23.63;17.45;;;15.40;96.70;;;;;;5050860;28;20469;-70
2022/06/28 05:42:16;;;;;;;20.40;15.85;;;15.40;96.50;;;;;;5051052;28;20033;-70
2022/06/28 05:44:42;;;;;;;23.60;17.42;;;15.30;96.50;;;;;;5047302;28;20087;-70
2022/06/28 05:47:10;;;;;;;25.27;17.33;;;15.40;96.50;;;;;;5052086;28;20040;-70
2022/06/28 05:49:36;;;;;;;22.73;17.73;;;15.50;96.70;;;;;;5047212;28;20025;-70
2022/06/28 05:52:01;;;;;;;21.10;17.15;;;15.50;96.60;;;;;;5050880;28;20495;-70
2022/06/28 05:54:26;;;;;;;22.98;17.30;;;15.60;96.40;;;;;;5054868;28;20041;-70
2022/06/28 05:56:52;;;;;;;21.92;17.77;;;15.80;96.30;;;;;;5049728;28;20037;-70
2022/06/28 05:59:17;;;;;;;24.13;16.88;;;15.70;95.70;;;;;;5048115;28;20048;-70
2022/06/28 06:01:43;;;;;;;19.30;15.13;;;15.80;95.70;;;;;;5051721;28;20435;-70
2022/06/28 06:04:09;;;;;;;22.52;15.82;;;15.80;95.30;;;;;;5052732;28;20033;-70
2022/06/28 06:06:34;;;;;;;18.85;14.25;;;16.00;95.10;;;;;;5044318;28;20037;-70
2022/06/28 06:09:00;;;;;;;15.88;13.13;;;15.90;94.50;;;;;;5050901;28;20079;-70
2022/06/28 06:11:25;;;;;;;17.55;12.95;;;16.00;94.30;;;;;;5048966;28;20053;-70
2022/06/28 06:13:51;;;;;;;18.25;13.70;;;16.00;93.90;;;;;;5046568;28;20504;-70
2022/06/28 06:16:17;;;;;;;16.80;13.02;;;16.20;93.60;;;;;;5050972;28;20415;-70
2022/06/28 06:18:42;;;;;;;15.52;11.52;;;16.40;94.00;;;;;;5046846;28;20373;-70
2022/06/28 06:21:08;;;;;;;17.27;12.20;;;16.30;91.70;;;;;;5048247;28;20104;-70
2022/06/28 06:23:34;;;;;;;15.25;12.25;;;16.30;91.00;;;;;;5051117;28;20083;-70
2022/06/28 06:26:00;;;;;;;14.23;11.13;;;16.50;90.60;;;;;;5049819;28;20398;-70
2022/06/28 06:28:26;;;;;;;13.45;11.68;;;16.50;90.60;;;;;;5047596;28;20033;-70
2022/06/28 06:30:51;;;;;;;14.63;11.57;;;16.40;90.30;;;;;;5049070;28;20040;-70
2022/06/28 06:33:17;;;;;;;14.95;11.07;;;16.50;90.30;;;;;;5043066;28;20037;-70
2022/06/28 06:35:42;;;;;;;13.65;12.13;;;16.60;89.60;;;;;;5048672;28;20052;-70
2022/06/28 06:38:08;;;;;;;16.00;11.23;;;16.60;88.70;;;;;;5049225;28;20459;-70
2022/06/28 06:40:33;;;;;;;18.02;12.40;;;16.60;88.60;;;;;;5047869;28;20440;-70
2022/06/28 06:42:59;;;;;;;12.75;10.43;;;16.50;88.50;;;;;;5049445;28;20060;-70
2022/06/28 06:45:24;;;;;;;15.50;9.57;;;16.70;87.60;;;;;;5050074;28;20029;-70
2022/06/28 06:47:50;;;;;;;13.73;9.02;;;16.60;87.10;;;;;;5048915;28;20033;-70
2022/06/28 06:50:16;;;;;;;15.95;10.48;;;16.80;86.60;;;;;;5045309;28;20047;-70
2022/06/28 06:52:41;;;;;;;13.70;10.27;;;16.80;87.60;;;;;;5049645;28;20089;-70
2022/06/28 06:55:08;;;;;;;14.68;10.18;;;16.80;87.20;;;;;;5048791;28;20040;-70
2022/06/28 06:57:33;;;;;;;16.48;10.18;;;16.90;87.90;;;;;;5049332;28;20033;-70
2022/06/28 06:59:59;;;;;;;12.23;8.77;;;17.10;87.20;;;;;;5040920;28;20025;-70
2022/06/28 07:02:25;;;;;;;13.35;9.30;;;17.10;87.00;;;;;;5050270;28;20159;-70
2022/06/28 07:04:50;;;;;;;10.45;7.90;;;17.30;85.90;;;;;;5050100;28;20074;-70
2022/06/28 07:07:16;;;;;;;11.20;7.65;;;17.50;85.90;;;;;;5047541;28;20044;-70
2022/06/28 07:09:41;;;;;;;11.90;8.02;;;17.50;84.20;;;;;;5046458;28;20040;-70
2022/06/28 07:12:07;;;;;;;10.57;7.80;;;17.50;84.40;;;;;;5047490;28;20041;-70
2022/06/28 07:14:33;;;;;;;12.63;8.35;;;17.70;85.30;;;;;;5035963;28;20105;-70
2022/06/28 07:16:58;;;;;;;14.63;8.93;;;17.80;83.20;;;;;;5046826;28;20498;-70
2022/06/28 07:19:24;;;;;;;10.65;8.35;;;17.90;84.60;;;;;;5046633;28;20111;-70
2022/06/28 07:21:50;;;;;;;10.98;6.97;;;18.10;83.80;;;;;;5047624;28;20021;-70
2022/06/28 07:24:17;;;;;;;11.70;7.05;;;18.10;83.30;;;;;;5049800;28;20056;-70
2022/06/28 07:26:43;;;;;;;15.85;5.93;;;18.00;83.20;;;;;;5046582;28;20067;-70
2022/06/28 07:29:08;;;;;;;10.00;5.10;;;17.90;83.50;;;;;;5047489;28;20029;-70
2022/06/28 07:31:34;;;;;;;11.57;5.88;;;17.80;81.50;;;;;;5041168;28;20579;-70
2022/06/28 07:34:00;;;;;;;10.52;4.97;;;17.90;80.80;;;;;;5049479;28;20041;-70
2022/06/28 07:36:25;;;;;;;10.68;5.07;;;18.20;80.00;;;;;;5046106;28;20113;-70
2022/06/28 07:38:52;;;;;;;9.38;4.63;;;18.10;79.70;;;;;;5048546;28;20037;-70
2022/06/28 07:41:18;;;;;;;8.43;4.22;;;18.30;78.10;;;;;;5045626;28;20037;-70
2022/06/28 07:43:44;;;;;;;10.70;3.55;;;18.40;77.20;;;;;;5048387;28;20390;-70
2022/06/28 07:46:10;;;;;;;7.50;3.38;;;18.80;74.90;;;;;;5047259;28;20037;-70
2022/06/28 07:48:35;;;;;;;9.00;3.95;;;19.00;75.20;;;;;;5046930;28;20108;-70
2022/06/28 07:53:45;;;;;;;6.03;3.03;;;18.70;76.80;;;;;;5048196;28;20070;-70
2022/06/28 07:56:11;;;;;;;8.32;3.03;;;18.60;77.00;;;;;;5046817;28;20037;-71
2022/06/28 07:58:39;;;;;;;6.50;3.10;;;18.30;77.70;;;;;;5047479;28;20492;-70
2022/06/28 08:01:06;;;;;;;7.88;3.15;;;18.10;77.20;;;;;;5049595;28;20436;-70
2022/06/28 08:03:32;;;;;;;6.57;2.95;;;17.90;78.00;;;;;;5042711;28;20047;-70
2022/06/28 08:05:57;;;;;;;8.23;3.25;;;18.00;78.10;;;;;;5048279;28;20041;-70
2022/06/28 08:08:23;;;;;;;11.73;2.80;;;18.50;77.80;;;;;;5049426;28;20037;-70
2022/06/28 08:10:48;;;;;;;7.97;3.22;;;18.30;77.00;;;;;;5047934;28;20049;-70
2022/06/28 08:13:16;;;;;;;4.85;3.08;;;18.50;75.80;;;;;;5050756;28;20127;-70
2022/06/28 08:15:42;;;;;;;6.32;2.38;;;18.60;75.10;;;;;;5049585;28;20337;-70
2022/06/28 08:18:08;;;;;;;8.70;2.85;;;18.30;74.60;;;;;;5049766;28;20044;-70
2022/06/28 08:20:33;;;;;;;8.38;2.45;;;18.20;75.10;;;;;;5056543;28;20036;-70
2022/06/28 08:22:59;;;;;;;7.55;2.60;;;18.50;74.80;;;;;;5053154;28;20079;-70
2022/06/28 08:25:25;;;;;;;10.77;2.50;;;18.70;74.70;;;;;;5051038;28;20120;-70
2022/06/28 08:27:50;;;;;;;7.10;2.45;;;19.50;74.80;;;;;;5051817;28;20052;-70
2022/06/28 08:30:16;;;;;;;7.97;2.50;;;19.50;72.10;;;;;;5050957;28;20219;-70
2022/06/28 08:32:41;;;;;;;6.07;2.38;;;19.30;72.40;;;;;;5051017;28;20044;-70
2022/06/28 08:35:07;;;;;;;6.78;2.55;;;19.10;72.50;;;;;;5051056;28;20029;-70
2022/06/28 08:37:33;;;;;;;4.70;2.55;;;19.00;73.00;;;;;;5051440;28;20097;-70
2022/06/28 08:39:58;;;;;;;6.35;2.75;;;18.90;74.20;;;;;;5050262;28;20139;-70
2022/06/28 08:42:26;;;;;;;10.20;2.60;;;19.00;73.90;;;;;;5048739;28;20036;-70
2022/06/28 08:44:52;;;;;;;5.57;2.45;;;19.30;73.30;;;;;;5050667;28;20113;-70
2022/06/28 08:47:20;;;;;;;7.32;2.40;;;19.70;72.30;;;;;;5052716;28;20225;-70
2022/06/28 08:49:56;;;;;;;8.70;2.22;;;19.80;71.10;;;;;;5049367;28;20025;-70
2022/06/28 08:52:23;;;;;;;7.15;2.20;;;19.80;70.30;;;;;;5049210;28;20110;-70
2022/06/28 08:54:50;;;;;;;7.63;2.55;;;19.40;70.00;;;;;;5048997;28;20040;-70
2022/06/28 08:57:18;;;;;;;6.63;2.80;;;19.40;70.80;;;;;;5051578;28;20056;-70
2022/06/28 08:59:44;;;;;;;5.07;2.45;;;19.80;70.70;;;;;;5050941;28;20028;-70
2022/06/28 09:02:13;;;;;;;7.80;2.95;;;20.00;68.20;;;;;;5052534;28;20057;-70
2022/06/28 09:04:42;;;;;;;9.93;2.60;;;19.60;70.10;;;;;;5050454;28;20129;-70
2022/06/28 09:07:08;;;;;;;8.93;2.28;;;19.60;71.20;;;;;;5049753;28;20077;-70
2022/06/28 09:09:33;;;;;;;8.48;2.88;;;19.60;70.10;;;;;;5051894;28;20072;-70
2022/06/28 09:11:59;;;;;;;5.80;2.25;;;19.50;69.80;;;;;;5050661;28;20040;-70
2022/06/28 09:14:26;;;;;;;5.78;2.08;;;19.40;69.50;;;;;;5044355;28;20021;-70
2022/06/28 09:16:52;;;;;;;5.80;2.17;;;19.60;71.00;;;;;;5051208;28;20112;-70
2022/06/28 09:19:33;;;;;;;7.28;2.22;;;20.00;66.70;;;;;;5049496;28;20086;-70
2022/06/28 09:21:59;;;;;;;4.10;2.35;;;20.70;67.30;;;;;;5048883;28;20033;-70
2022/06/28 09:24:25;;;;;;;3.88;1.88;;;20.60;66.30;;;;;;5050321;28;20036;-70
2022/06/28 09:26:59;;;;;;;3.97;2.05;;;20.60;66.20;;;;;;5041551;28;20032;-70
2022/06/28 09:29:24;;;;;;;5.47;1.77;;;20.90;65.20;;;;;;5048991;28;20140;-70
2022/06/28 09:31:50;;;;;;;5.88;2.10;;;20.90;66.20;;;;;;5051763;28;20136;-70
2022/06/28 09:34:15;;;;;;;8.98;2.42;;;20.80;64.60;;;;;;5050297;28;20048;-70
2022/06/28 09:36:55;;;;;;;4.32;1.95;;;20.90;64.10;;;;;;5051972;28;20135;-70
2022/06/28 09:39:25;;;;;;;4.28;2.20;;;21.20;63.30;;;;;;5050938;28;20460;-70
2022/06/28 09:41:52;;;;;;;5.50;1.70;;;21.30;62.00;;;;;;5037882;28;20021;-70
2022/06/28 09:44:23;;;;;;;5.43;1.88;;;20.70;61.80;;;;;;5049174;28;20033;-70
2022/06/28 09:46:49;;;;;;;6.55;1.95;;;20.40;62.80;;;;;;5050451;28;20432;-70
2022/06/28 09:49:14;;;;;;;6.70;1.98;;;20.50;66.00;;;;;;5049430;28;20036;-70
2022/06/28 09:51:41;;;;;;;4.80;1.95;;;20.30;63.70;;;;;;5050392;28;20105;-70
2022/06/28 09:54:09;;;;;;;5.47;2.40;;;20.60;64.20;;;;;;5047469;28;20037;-70
2022/06/28 09:56:45;;;;;;;3.78;2.30;;;20.40;66.30;;;;;;5048004;28;20048;-70
2022/06/28 09:59:11;;;;;;;6.45;2.17;;;20.80;63.10;;;;;;5050115;28;20062;-70
2022/06/28 10:01:37;;;;;;;4.40;2.33;;;21.50;61.80;;;;;;5050740;28;20037;-70
2022/06/28 10:04:03;;;;;;;5.47;2.40;;;21.80;60.40;;;;;;5041267;28;20032;-70
2022/06/28 10:06:30;;;;;;;7.22;2.20;;;22.50;59.10;;;;;;5051098;28;20132;-71
2022/06/28 10:08:55;;;;;;;4.95;2.10;;;22.20;60.90;;;;;;5050131;28;20126;-71
2022/06/28 10:11:21;;;;;;;5.65;1.90;;;22.70;60.70;;;;;;5048984;28;20479;-71
2022/06/28 10:16:55;;;;;;;6.95;2.20;;;22.00;60.10;;;;;;5050876;28;20436;-71
2022/06/28 10:19:21;;;;;;;4.60;2.22;;;21.50;61.00;;;;;;5055838;28;20470;-70
2022/06/28 10:22:07;;;;;;;4.68;2.40;;;20.90;62.30;;;;;;5051356;28;20391;-70
2022/06/28 10:25:18;;;;;;;7.25;2.85;;;21.30;61.20;;;;;;5051062;28;20032;-70
2022/06/28 10:27:45;;;;;;;;;;;22.10;60.10;;;;;;4984592;28;20093;-71
2022/06/28 10:30:18;;;;;;;5.60;2.30;;;22.60;58.40;;;;;;5037193;28;19964;-71
2022/06/28 10:32:45;;;;;;;6.45;2.20;;;22.90;60.20;;;;;;5050882;28;20029;-71
2022/06/28 10:35:30;;;;;;;6.13;2.08;;;23.00;54.60;;;;;;5048392;28;20029;-71
2022/06/28 10:38:08;;;;;;;4.63;2.05;;;23.50;55.40;;;;;;5049381;28;20079;-71
2022/06/28 10:40:47;;;;;;;4.55;1.85;;;23.00;55.00;;;;;;5046039;28;20037;-71
2022/06/28 10:43:25;;;;;;;4.25;2.05;;;22.60;55.70;;;;;;5046035;28;20039;-71
2022/06/28 10:46:09;;;;;;;3.70;1.85;;;22.70;54.80;;;;;;5050584;28;20090;-71
2022/06/28 10:48:50;;;;;;;5.75;2.40;;;22.50;56.30;;;;;;5048316;28;20457;-71
2022/06/28 10:51:17;;;;;;;3.38;2.03;;;22.90;54.80;;;;;;5050359;28;20075;-71
2022/06/28 10:53:57;;;;;;;6.30;1.90;;;23.50;51.70;;;;;;5045222;28;20029;-71
2022/06/28 10:56:24;;;;;;;3.83;2.00;;;23.50;49.20;;;;;;5048342;28;20495;-71
2022/06/28 10:59:02;;;;;;;2.72;1.70;;;23.00;52.10;;;;;;5042015;28;20028;-71
2022/06/28 11:01:40;;;;;;;4.65;1.70;;;22.70;53.10;;;;;;5046052;28;20025;-71
2022/06/28 11:04:23;;;;;;;5.57;1.50;;;23.90;51.90;;;;;;5045187;28;20089;-71
2022/06/28 11:06:53;;;;;;;4.00;1.60;;;24.50;51.20;;;;;;5045252;28;20028;-71
2022/06/28 11:09:51;;;;;;;2.70;1.73;;;25.40;46.40;;;;;;5048797;28;20029;-69
2022/06/28 11:12:35;;;;;;;4.53;2.08;;;25.50;47.60;;;;;;5040895;28;20041;-69
2022/06/28 11:15:09;;;;;;;5.90;2.05;;;25.70;47.60;;;;;;5048778;28;20644;-69
2022/06/28 11:17:44;;;;;;;5.30;1.88;;;25.90;46.80;;;;;;5049082;28;20448;-69
2022/06/28 11:20:14;;;;;;;3.88;1.70;;;25.20;47.30;;;;;;5048824;28;20099;-69
2022/06/28 11:22:45;;;;;;;4.30;1.58;;;24.20;50.40;;;;;;5049338;28;20056;-69
2022/06/28 11:25:18;;;;;;;5.93;2.10;;;23.20;50.70;;;;;;5048766;28;20108;-69
2022/06/28 11:27:52;;;;;;;4.18;1.70;;;22.80;52.90;;;;;;5041762;28;20047;-69
2022/06/28 11:30:20;;;;;;;4.68;1.85;;;22.50;53.90;;;;;;5048854;28;20364;-69
2022/06/28 11:32:50;;;;;;;2.65;1.40;;;22.30;53.20;;;;;;5045003;28;20174;-70
2022/06/28 11:35:24;;;;;;;4.72;2.05;;;22.20;53.80;;;;;;5044753;28;20472;-70
2022/06/28 11:37:57;;;;;;;5.10;2.20;;;23.00;52.40;;;;;;5050024;28;20154;-71
2022/06/28 11:40:38;;;;;;;5.70;1.90;;;23.30;50.50;;;;;;5048879;28;20122;-71
2022/06/28 11:43:15;;;;;;;5.00;1.80;;;23.70;51.90;;;;;;5047001;28;20029;-71
2022/06/28 11:45:43;;;;;;;4.32;1.90;;;24.60;53.50;;;;;;5049780;28;20302;-71
2022/06/28 11:48:21;;;;;;;5.40;2.05;;;25.00;48.50;;;;;;5046062;28;20033;-71
2022/06/28 11:50:55;;;;;;;4.13;1.80;;;25.00;50.40;;;;;;5045267;28;20072;-69
2022/06/28 11:53:21;;;;;;;4.32;1.73;;;25.30;44.40;;;;;;5046685;28;20174;-70
2022/06/28 11:55:55;;;;;;;3.53;1.35;;;25.60;47.40;;;;;;5037482;28;20041;-69
2022/06/28 11:58:38;;;;;;;4.38;1.67;;;26.10;47.90;;;;;;5034813;28;20037;-69
2022/06/28 12:01:15;;;;;;;4.40;1.80;;;26.40;46.10;;;;;;5052108;28;20032;-69
2022/06/28 12:03:43;;;;;;;8.13;1.63;;;26.20;42.70;;;;;;5048868;28;20029;-69
2022/06/28 12:06:11;;;;;;;3.85;2.05;;;26.80;45.10;;;;;;5045967;28;20152;-70
2022/06/28 12:08:45;;;;;;;4.57;1.60;;;26.70;46.10;;;;;;5039043;28;20060;-69
2022/06/28 12:11:37;;;;;;;4.15;1.42;;;27.00;43.70;;;;;;5040976;28;20048;-69
2022/06/28 12:14:02;;;;;;;2.50;1.15;;;27.80;43.00;;;;;;5037465;28;20045;-69
2022/06/28 12:16:49;;;;;;;5.38;1.40;;;27.30;45.20;;;;;;5045586;28;20534;-69
2022/06/28 12:19:17;;;;;;;2.38;1.20;;;26.80;41.50;;;;;;5047801;28;20108;-69
2022/06/28 12:22:04;;;;;;;3.28;1.17;;;26.10;42.80;;;;;;5047108;28;20028;-69
2022/06/28 12:24:41;;;;;;;6.47;1.63;;;25.70;44.80;;;;;;5046542;28;20130;-69
2022/06/28 12:27:09;;;;;;;2.05;1.10;;;26.00;45.00;;;;;;5045351;28;20029;-69
2022/06/28 12:29:34;;;;;;;3.30;1.27;;;27.00;42.90;;;;;;5042478;28;20045;-69
2022/06/28 12:32:00;;;;;;;2.40;1.40;;;27.30;41.10;;;;;;5047743;28;20048;-69
2022/06/28 12:34:26;;;;;;;3.10;1.20;;;27.50;39.40;;;;;;5043906;28;20037;-69
2022/06/28 12:36:52;;;;;;;2.65;1.20;;;27.80;40.80;;;;;;5046135;28;20044;-69
2022/06/28 12:39:17;;;;;;;5.20;1.67;;;27.50;40.20;;;;;;5045630;28;20060;-69
2022/06/28 12:41:43;;;;;;;3.08;0.95;;;27.90;41.30;;;;;;5045204;28;20460;-69
2022/06/28 12:44:09;;;;;;;2.85;1.20;;;28.40;41.10;;;;;;5042865;28;20029;-69
2022/06/28 12:46:34;;;;;;;3.67;1.50;;;26.90;42.10;;;;;;5046847;28;20060;-69
2022/06/28 12:49:00;;;;;;;4.15;1.42;;;26.20;43.70;;;;;;5045085;28;20036;-68
2022/06/28 12:51:26;;;;;;;2.70;1.23;;;26.90;43.40;;;;;;5047713;28;20072;-69
2022/06/28 12:53:52;;;;;;;3.53;1.25;;;27.20;43.30;;;;;;5044297;28;20075;-69